Portada
METAR-TAF:

METAR-TAF

Aeroports :

Brookhaven Airport

Shirley, Nova York, Estats Units d'Amèrica

latitud: 40-49-18N, longitud: 072-52-08W, altitud: 25 m

Observació

L'informe es va fer fa 13 minuts, a les 04:56 UTC
Vent calma
Temperatura -1°C
Humitat 86%
Pressió 1026 hPa
Visibilitat: 16.1 km
Cel clar

METAR: KHWV 310456Z AUTO 00000KT 10SM CLR M01/M03 A3030 RMK AO2 SLP261 T10061028 400891006

Hora: 01:09 (05:09 UTC)


TAF: manca

Observacions i pronòstics meteorològics de més de 4000 aeroports (METAR i TAF).

Les estacions disponibles són els punts grocs i vermells al mapa.

Posi el ratolí al punt desitjat per veure el nom de l'estació.

Feu clic per veure les observacions i els pronòstics meteorològics.

Per canviar el mapa: feu clic els botons verds amb una creu de color negre per apropar; al botó verd amb un guió per allunyar la imatge; o en les fletxes verdes per a mapes adjacents.


METAR-TAF: